createdAt,value
2022-12-09T00:00:54.059Z,5.69
2022-12-09T00:01:33.787Z,5.63
2022-12-09T00:02:14.232Z,5.67
2022-12-09T00:02:54.897Z,5.69
2022-12-09T00:03:42.940Z,5.56
2022-12-09T00:04:36.971Z,5.62
2022-12-09T00:05:30.928Z,5.59
2022-12-09T00:06:34.764Z,5.60
2022-12-09T00:07:29.027Z,5.58
2022-12-09T00:08:22.926Z,5.52
2022-12-09T00:09:04.890Z,5.52
2022-12-09T00:09:45.020Z,5.52
2022-12-09T00:10:25.893Z,5.55
2022-12-09T00:11:06.865Z,5.41
2022-12-09T00:11:47.783Z,5.46
2022-12-09T00:12:28.002Z,5.45
2022-12-09T00:13:07.800Z,5.39
2022-12-09T00:13:48.040Z,5.39
2022-12-09T00:14:29.029Z,5.43
2022-12-09T00:15:09.037Z,5.37
2022-12-09T00:15:50.092Z,5.21
2022-12-09T00:16:31.972Z,5.40
2022-12-09T00:17:12.928Z,5.37
2022-12-09T00:17:52.833Z,5.39
2022-12-09T00:18:33.840Z,5.36
2022-12-09T00:19:13.929Z,5.38
2022-12-09T00:19:54.827Z,5.44
2022-12-09T00:20:34.861Z,5.39
2022-12-09T00:21:39.000Z,5.42
2022-12-09T00:22:19.022Z,5.45
2022-12-09T00:22:59.774Z,5.32
2022-12-09T00:23:39.833Z,5.46
2022-12-09T00:24:21.857Z,5.39
2022-12-09T00:25:08.882Z,5.38
2022-12-09T00:26:02.806Z,5.47
2022-12-09T00:26:56.767Z,5.39
2022-12-09T00:27:50.940Z,5.41
2022-12-09T00:28:44.976Z,5.31
2022-12-09T00:29:38.777Z,5.25
2022-12-09T00:30:26.787Z,5.27
2022-12-09T00:31:01.032Z,5.27
2022-12-09T00:31:48.170Z,5.14
2022-12-09T00:32:23.082Z,5.18
2022-12-09T00:33:09.753Z,5.19
2022-12-09T00:33:44.531Z,5.13
2022-12-09T00:34:31.996Z,5.13
2022-12-09T00:35:12.813Z,5.08
2022-12-09T00:35:52.761Z,5.10
2022-12-09T00:36:34.828Z,5.14
2022-12-09T00:37:15.760Z,5.11
2022-12-09T00:37:57.108Z,5.12
2022-12-09T00:38:37.889Z,5.06
2022-12-09T00:39:17.914Z,5.09
2022-12-09T00:39:57.787Z,4.85
2022-12-09T00:40:38.935Z,4.95
2022-12-09T00:41:20.782Z,4.89
2022-12-09T00:42:02.068Z,4.76
2022-12-09T00:42:42.716Z,4.77
2022-12-09T00:43:22.824Z,4.88
2022-12-09T00:44:04.759Z,4.90
2022-12-09T00:44:44.783Z,4.86
2022-12-09T00:45:24.754Z,4.95
2022-12-09T00:46:05.318Z,4.87
2022-12-09T00:46:46.028Z,4.96
2022-12-09T00:47:25.984Z,4.90
2022-12-09T00:48:06.840Z,4.83
2022-12-09T00:48:48.791Z,4.78
2022-12-09T00:49:28.730Z,4.86
2022-12-09T00:50:11.232Z,4.82
2022-12-09T00:50:52.864Z,4.90
2022-12-09T00:51:33.020Z,4.89
2022-12-09T00:52:13.764Z,4.93
2022-12-09T00:52:53.968Z,4.91
2022-12-09T00:53:34.727Z,4.95
2022-12-09T00:54:16.094Z,4.87
2022-12-09T00:54:56.837Z,4.93
2022-12-09T00:55:37.256Z,4.94
2022-12-09T00:56:18.777Z,4.84
2022-12-09T00:56:59.845Z,4.73
2022-12-09T00:57:39.941Z,4.92
2022-12-09T00:58:20.933Z,4.90
2022-12-09T00:59:00.791Z,4.86
2022-12-09T00:59:40.905Z,4.86
2022-12-09T01:00:21.934Z,4.91
2022-12-09T01:01:01.862Z,4.94
2022-12-09T01:01:42.785Z,4.84
2022-12-09T01:02:22.854Z,4.80
2022-12-09T01:03:02.972Z,4.88
2022-12-09T01:03:43.021Z,4.88
2022-12-09T01:04:24.022Z,4.88
2022-12-09T01:05:04.035Z,4.92
2022-12-09T01:05:44.902Z,4.83
2022-12-09T01:06:30.008Z,4.91
2022-12-09T01:07:10.892Z,4.84
2022-12-09T01:07:51.066Z,4.85
2022-12-09T01:08:32.039Z,4.91
2022-12-09T01:09:12.343Z,4.89
2022-12-09T01:09:52.731Z,4.81
2022-12-09T01:10:33.217Z,4.88
2022-12-09T01:11:19.848Z,4.95
2022-12-09T01:12:00.345Z,4.93
2022-12-09T01:12:40.754Z,4.90
2022-12-09T01:13:22.862Z,4.97
2022-12-09T01:14:07.883Z,4.92
2022-12-09T01:14:48.102Z,5.00
2022-12-09T01:15:28.858Z,4.99
2022-12-09T01:16:10.461Z,4.99
2022-12-09T01:16:50.874Z,4.99
2022-12-09T01:17:31.806Z,5.03
2022-12-09T01:18:13.765Z,5.02
2022-12-09T01:18:55.306Z,4.92
2022-12-09T01:19:35.993Z,4.88
2022-12-09T01:20:17.264Z,4.91
2022-12-09T01:21:05.977Z,4.82
2022-12-09T01:21:45.808Z,4.94
2022-12-09T01:22:25.860Z,4.95
2022-12-09T01:23:07.055Z,5.06
2022-12-09T01:23:47.997Z,5.03
2022-12-09T01:24:28.756Z,4.91
2022-12-09T01:25:09.875Z,5.00
2022-12-09T01:25:51.071Z,4.99
2022-12-09T01:26:32.803Z,4.99
2022-12-09T01:27:13.163Z,5.06
2022-12-09T01:27:53.756Z,5.05
2022-12-09T01:28:34.133Z,5.15
2022-12-09T01:29:16.033Z,5.11
2022-12-09T01:29:55.744Z,4.94
2022-12-09T01:30:36.718Z,5.01
2022-12-09T01:31:21.926Z,5.01
2022-12-09T01:32:02.829Z,5.04
2022-12-09T01:32:43.628Z,5.09
2022-12-09T01:33:23.770Z,5.03
2022-12-09T01:34:03.945Z,5.03
2022-12-09T01:34:43.662Z,5.10
2022-12-09T01:35:24.921Z,5.11
2022-12-09T01:36:04.888Z,5.05
2022-12-09T01:36:44.782Z,5.15
2022-12-09T01:37:25.987Z,5.10
2022-12-09T01:38:05.760Z,5.04
2022-12-09T01:38:46.733Z,5.00
2022-12-09T01:39:26.925Z,4.91
2022-12-09T01:40:08.849Z,4.91
2022-12-09T01:40:53.756Z,4.95
2022-12-09T01:41:34.685Z,4.93
2022-12-09T01:42:26.884Z,4.94
2022-12-09T01:43:08.006Z,5.05
2022-12-09T01:43:48.722Z,5.10
2022-12-09T01:44:33.661Z,4.98
2022-12-09T01:45:30.776Z,5.00
2022-12-09T01:46:10.779Z,5.05
2022-12-09T01:46:58.977Z,4.99
2022-12-09T01:47:33.534Z,4.85
2022-12-09T01:48:29.842Z,4.94
2022-12-09T01:49:04.409Z,5.10
2022-12-09T01:49:54.925Z,4.88
2022-12-09T01:50:29.397Z,5.07
2022-12-09T01:51:30.188Z,5.10
2022-12-09T01:52:28.705Z,5.08
2022-12-09T01:53:09.903Z,5.01
2022-12-09T01:53:52.653Z,4.96
2022-12-09T01:54:34.019Z,5.06
2022-12-09T01:55:15.691Z,5.05
2022-12-09T01:55:56.980Z,5.13
2022-12-09T01:56:40.888Z,5.04
2022-12-09T01:57:21.774Z,5.05
2022-12-09T01:58:01.681Z,5.13
2022-12-09T01:58:41.712Z,5.13
2022-12-09T01:59:22.898Z,5.13
2022-12-09T02:00:04.105Z,5.10
2022-12-09T02:00:44.658Z,5.09
2022-12-09T02:01:26.061Z,5.03
2022-12-09T02:02:08.767Z,5.14
2022-12-09T02:02:52.403Z,5.13
2022-12-09T02:03:33.075Z,5.08
2022-12-09T02:04:13.840Z,5.02
2022-12-09T02:04:55.828Z,4.99
2022-12-09T02:05:37.893Z,5.04
2022-12-09T02:06:18.665Z,5.03
2022-12-09T02:07:00.097Z,5.05
2022-12-09T02:07:41.712Z,4.97
2022-12-09T02:08:25.948Z,4.97
2022-12-09T02:09:08.056Z,5.04
2022-12-09T02:09:53.218Z,5.01
2022-12-09T02:10:34.670Z,4.94
2022-12-09T02:11:38.893Z,5.02
2022-12-09T02:12:38.856Z,4.82
2022-12-09T02:13:27.994Z,4.92
2022-12-09T02:14:33.736Z,4.96
2022-12-09T02:15:27.823Z,4.83
2022-12-09T02:16:11.987Z,4.92
2022-12-09T02:17:36.802Z,5.00
2022-12-09T02:18:33.835Z,4.97
2022-12-09T02:19:56.651Z,4.92
2022-12-09T02:20:44.704Z,5.03
2022-12-09T02:21:48.908Z,4.99
2022-12-09T02:22:30.427Z,5.06
2022-12-09T02:23:43.672Z,5.05
2022-12-09T02:24:46.414Z,5.02
2022-12-09T02:25:52.779Z,5.17
2022-12-09T02:26:59.839Z,5.19
2022-12-09T02:28:04.621Z,5.25
2022-12-09T02:29:16.105Z,5.30
2022-12-09T02:30:23.880Z,5.28
2022-12-09T02:31:58.870Z,5.25
2022-12-09T02:33:23.243Z,5.25
2022-12-09T02:34:33.651Z,5.28
2022-12-09T02:35:19.060Z,5.18
2022-12-09T02:36:28.648Z,5.23
2022-12-09T02:37:24.740Z,5.22
2022-12-09T02:38:27.699Z,5.11
2022-12-09T02:39:16.902Z,5.15
2022-12-09T02:40:07.323Z,5.20
2022-12-09T02:41:02.669Z,5.23
2022-12-09T02:41:38.076Z,5.23
2022-12-09T02:42:28.712Z,5.21
2022-12-09T02:43:02.840Z,5.22
2022-12-09T02:43:56.090Z,5.16
2022-12-09T02:44:31.918Z,5.08
2022-12-09T02:45:19.644Z,5.23
2022-12-09T02:45:54.794Z,5.05
2022-12-09T02:46:42.748Z,5.21
2022-12-09T02:47:20.017Z,5.13
2022-12-09T02:48:01.939Z,5.06
2022-12-09T02:48:54.121Z,5.15
2022-12-09T02:49:36.801Z,5.15
2022-12-09T02:50:19.708Z,5.01
2022-12-09T02:51:00.627Z,4.97
2022-12-09T02:51:42.804Z,5.00
2022-12-09T02:52:25.851Z,5.09
2022-12-09T02:53:16.777Z,5.12
2022-12-09T02:54:21.605Z,5.14
2022-12-09T02:55:21.724Z,5.16
2022-12-09T02:56:17.633Z,5.13
2022-12-09T02:57:16.607Z,5.20
2022-12-09T02:58:13.613Z,5.19
2022-12-09T02:58:55.862Z,5.19
2022-12-09T02:59:36.708Z,5.24
2022-12-09T03:00:20.696Z,5.22
2022-12-09T03:01:04.505Z,5.22
2022-12-09T03:02:09.872Z,5.20
2022-12-09T03:02:56.203Z,5.13
2022-12-09T03:03:40.771Z,5.23
2022-12-09T03:04:27.945Z,5.04
2022-12-09T03:05:34.898Z,5.10
2022-12-09T03:06:23.580Z,5.16
2022-12-09T03:07:27.947Z,5.12
2022-12-09T03:08:39.746Z,5.19
2022-12-09T03:09:18.804Z,5.04
2022-12-09T03:10:08.837Z,5.05
2022-12-09T03:11:11.619Z,5.20
2022-12-09T03:11:52.596Z,5.17
2022-12-09T03:12:35.680Z,5.17
2022-12-09T03:13:46.833Z,5.19
2022-12-09T03:14:46.675Z,5.18
2022-12-09T03:15:31.749Z,5.07
2022-12-09T03:16:35.931Z,5.12
2022-12-09T03:17:20.649Z,5.10
2022-12-09T03:18:01.802Z,5.12
2022-12-09T03:18:44.622Z,4.95
2022-12-09T03:19:52.625Z,5.06
2022-12-09T03:20:35.759Z,5.14
2022-12-09T03:21:17.144Z,5.11
2022-12-09T03:22:03.948Z,5.16
2022-12-09T03:22:48.684Z,5.01
2022-12-09T03:23:32.772Z,4.95
2022-12-09T03:24:16.688Z,4.95
2022-12-09T03:25:23.811Z,4.95
2022-12-09T03:26:05.551Z,4.97
2022-12-09T03:26:40.732Z,5.01
2022-12-09T03:27:34.550Z,5.11
2022-12-09T03:28:14.756Z,5.11
2022-12-09T03:29:02.562Z,5.14
2022-12-09T03:29:38.037Z,5.19
2022-12-09T03:30:25.858Z,5.10
2022-12-09T03:31:00.823Z,5.01
2022-12-09T03:31:42.952Z,5.16
2022-12-09T03:32:27.683Z,5.26
2022-12-09T03:33:09.737Z,5.23
2022-12-09T03:33:54.924Z,5.18
2022-12-09T03:34:42.608Z,5.25
2022-12-09T03:35:28.705Z,5.05
2022-12-09T03:36:11.760Z,5.24
2022-12-09T03:37:01.843Z,5.26
2022-12-09T03:37:56.623Z,5.31
2022-12-09T03:38:38.555Z,5.26
2022-12-09T03:39:32.840Z,5.27
2022-12-09T03:40:14.066Z,5.28
2022-12-09T03:41:08.595Z,5.28
2022-12-09T03:41:48.254Z,5.28
2022-12-09T03:42:35.614Z,5.17
2022-12-09T03:43:18.593Z,5.29
2022-12-09T03:44:01.156Z,5.30
2022-12-09T03:44:53.612Z,5.28
2022-12-09T03:45:27.807Z,5.20
2022-12-09T03:46:01.684Z,5.29
2022-12-09T03:46:42.740Z,5.26
2022-12-09T03:47:17.945Z,5.17
2022-12-09T03:47:59.700Z,5.10
2022-12-09T03:48:39.573Z,5.12
2022-12-09T03:49:19.582Z,5.17
2022-12-09T03:49:59.918Z,5.16
2022-12-09T03:50:56.592Z,5.19
2022-12-09T03:52:03.720Z,5.13
2022-12-09T03:52:48.551Z,5.16
2022-12-09T03:53:44.944Z,5.18
2022-12-09T03:54:40.836Z,5.20
2022-12-09T03:55:36.183Z,5.07
2022-12-09T03:56:34.814Z,5.22
2022-12-09T03:57:14.096Z,5.16
2022-12-09T03:57:56.748Z,5.17
2022-12-09T03:58:39.850Z,5.16
2022-12-09T03:59:25.675Z,5.10
2022-12-09T04:00:02.228Z,5.11
2022-12-09T04:00:52.037Z,5.14
2022-12-09T04:01:27.969Z,5.02
2022-12-09T04:02:15.830Z,5.07
2022-12-09T04:02:50.801Z,5.12
2022-12-09T04:03:37.849Z,4.98
2022-12-09T04:04:12.994Z,4.80
2022-12-09T04:04:53.561Z,4.93
2022-12-09T04:05:27.835Z,4.98
2022-12-09T04:06:02.387Z,5.00
2022-12-09T04:06:43.607Z,5.04
2022-12-09T04:07:17.616Z,4.92
2022-12-09T04:07:51.761Z,4.94
2022-12-09T04:08:33.012Z,4.99
2022-12-09T04:09:07.728Z,4.94
2022-12-09T04:09:42.103Z,4.96
2022-12-09T04:10:23.785Z,4.90
2022-12-09T04:10:57.553Z,4.96
2022-12-09T04:11:32.809Z,4.97
2022-12-09T04:12:13.550Z,4.91
2022-12-09T04:12:47.606Z,4.95
2022-12-09T04:13:21.582Z,4.93
2022-12-09T04:14:01.812Z,4.88
2022-12-09T04:14:35.792Z,4.85
2022-12-09T04:15:10.530Z,4.77
2022-12-09T04:15:50.762Z,4.80
2022-12-09T04:16:24.673Z,4.86
2022-12-09T04:16:58.250Z,4.86
2022-12-09T04:17:38.633Z,4.73
2022-12-09T04:18:12.947Z,4.76
2022-12-09T04:18:47.520Z,4.74
2022-12-09T04:19:28.900Z,4.77
2022-12-09T04:20:02.629Z,4.79
2022-12-09T04:20:36.464Z,4.86
2022-12-09T04:21:19.544Z,4.74
2022-12-09T04:21:53.791Z,4.79
2022-12-09T04:22:27.545Z,4.91
2022-12-09T04:23:08.731Z,4.95
2022-12-09T04:23:43.558Z,5.00
2022-12-09T04:24:17.376Z,4.93
2022-12-09T04:24:57.518Z,4.84
2022-12-09T04:25:31.572Z,4.86
2022-12-09T04:26:06.531Z,4.82
2022-12-09T04:26:46.831Z,4.80
2022-12-09T04:27:20.633Z,4.80
2022-12-09T04:27:55.297Z,4.86
2022-12-09T04:28:36.643Z,4.89
2022-12-09T04:29:10.663Z,4.87
2022-12-09T04:29:45.015Z,4.88
2022-12-09T04:30:24.758Z,4.90
2022-12-09T04:30:58.818Z,4.89
2022-12-09T04:31:32.912Z,4.92
2022-12-09T04:32:13.596Z,4.98
2022-12-09T04:32:47.670Z,4.89
2022-12-09T04:33:21.703Z,4.91
2022-12-09T04:34:06.727Z,4.83
2022-12-09T04:34:42.537Z,4.86
2022-12-09T04:35:16.491Z,4.93
2022-12-09T04:35:56.586Z,4.97
2022-12-09T04:36:30.831Z,4.92
2022-12-09T04:37:05.201Z,4.95
2022-12-09T04:37:46.763Z,4.91
2022-12-09T04:38:20.816Z,4.88
2022-12-09T04:38:54.821Z,4.98
2022-12-09T04:39:34.489Z,4.95
2022-12-09T04:40:09.204Z,4.95
2022-12-09T04:40:43.475Z,5.02
2022-12-09T04:41:23.543Z,4.94
2022-12-09T04:41:57.528Z,4.99
2022-12-09T04:42:32.016Z,4.99
2022-12-09T04:43:12.776Z,5.07
2022-12-09T04:43:48.965Z,5.00
2022-12-09T04:44:23.867Z,5.11
2022-12-09T04:45:03.492Z,5.14
2022-12-09T04:45:37.861Z,5.13
2022-12-09T04:46:16.123Z,5.16
2022-12-09T04:46:57.809Z,5.16
2022-12-09T04:47:31.632Z,5.16
2022-12-09T04:48:05.432Z,5.17
2022-12-09T04:48:45.774Z,5.10
2022-12-09T04:49:19.851Z,5.25
2022-12-09T04:50:00.607Z,5.26
2022-12-09T04:50:40.489Z,5.16
2022-12-09T04:51:17.084Z,5.24
2022-12-09T04:51:51.628Z,5.28
2022-12-09T04:52:31.817Z,5.21
2022-12-09T04:53:05.822Z,5.29
2022-12-09T04:53:40.810Z,5.27
2022-12-09T04:54:21.734Z,5.26
2022-12-09T04:54:56.596Z,5.16
2022-12-09T04:55:30.218Z,5.16
2022-12-09T04:56:25.592Z,5.14
2022-12-09T04:56:59.705Z,5.16
2022-12-09T04:57:33.456Z,5.19
2022-12-09T04:58:14.742Z,5.14
2022-12-09T04:58:49.941Z,5.14
2022-12-09T04:59:30.874Z,5.20
2022-12-09T05:00:12.816Z,4.99
2022-12-09T05:00:53.799Z,5.05
2022-12-09T05:01:34.856Z,5.12
2022-12-09T05:02:15.661Z,5.06
2022-12-09T05:02:55.626Z,5.05
2022-12-09T05:03:36.868Z,5.14
2022-12-09T05:04:18.889Z,5.08
2022-12-09T05:04:59.780Z,5.10
2022-12-09T05:05:40.008Z,5.07
2022-12-09T05:06:21.543Z,5.11
2022-12-09T05:07:01.589Z,5.13
2022-12-09T05:07:42.610Z,5.10
2022-12-09T05:08:31.062Z,5.11
2022-12-09T05:09:18.928Z,5.06
2022-12-09T05:10:14.313Z,5.06
2022-12-09T05:11:08.588Z,5.12
2022-12-09T05:12:02.896Z,4.98
2022-12-09T05:12:56.757Z,4.98
2022-12-09T05:13:50.870Z,5.00
2022-12-09T05:14:45.473Z,5.03
2022-12-09T05:15:32.874Z,4.90
2022-12-09T05:16:17.481Z,4.93
2022-12-09T05:17:04.556Z,5.06
2022-12-09T05:17:38.626Z,5.06
2022-12-09T05:18:25.800Z,5.04
2022-12-09T05:18:59.884Z,5.11
2022-12-09T05:19:47.503Z,5.20
2022-12-09T05:20:21.598Z,5.21
2022-12-09T05:21:03.584Z,5.20
2022-12-09T05:21:46.407Z,5.13
2022-12-09T05:22:26.615Z,5.09
2022-12-09T05:23:09.567Z,5.12
2022-12-09T05:23:51.733Z,5.04
2022-12-09T05:24:47.690Z,4.97
2022-12-09T05:25:42.811Z,5.00
2022-12-09T05:26:26.594Z,4.86
2022-12-09T05:27:20.723Z,4.93
2022-12-09T05:28:14.505Z,4.98
2022-12-09T05:29:08.689Z,5.00
2022-12-09T05:30:02.672Z,5.04
2022-12-09T05:30:57.777Z,5.04
2022-12-09T05:31:44.801Z,5.14
2022-12-09T05:32:18.779Z,5.16
2022-12-09T05:33:05.949Z,5.16
2022-12-09T05:33:40.758Z,5.21
2022-12-09T05:34:27.638Z,5.23
2022-12-09T05:35:02.694Z,5.24
2022-12-09T05:35:53.569Z,5.27
2022-12-09T05:36:31.726Z,5.25
2022-12-09T05:37:12.905Z,5.23
2022-12-09T05:37:53.792Z,5.23
2022-12-09T05:38:34.506Z,5.23
2022-12-09T05:39:15.847Z,5.19
2022-12-09T05:39:55.875Z,5.07
2022-12-09T05:40:36.590Z,4.93
2022-12-09T05:41:17.785Z,5.11
2022-12-09T05:41:58.799Z,5.17
2022-12-09T05:42:41.626Z,5.19
2022-12-09T05:43:23.823Z,5.10
2022-12-09T05:44:04.626Z,5.04
2022-12-09T05:44:45.556Z,5.07
2022-12-09T05:45:25.816Z,5.04
2022-12-09T05:46:08.806Z,5.05
2022-12-09T05:46:50.622Z,5.03
2022-12-09T05:47:30.681Z,5.00
2022-12-09T05:48:11.748Z,5.02
2022-12-09T05:48:52.579Z,5.09
2022-12-09T05:49:32.984Z,5.11
2022-12-09T05:50:15.154Z,5.12
2022-12-09T05:51:12.508Z,5.08
2022-12-09T05:51:54.320Z,5.04
2022-12-09T05:52:35.753Z,5.09
2022-12-09T05:53:23.661Z,5.09
2022-12-09T05:54:19.495Z,5.06
2022-12-09T05:55:13.538Z,5.05
2022-12-09T05:56:07.588Z,5.11
2022-12-09T05:57:03.776Z,5.18
2022-12-09T05:57:58.577Z,5.08
2022-12-09T05:58:45.656Z,5.04
2022-12-09T05:59:19.538Z,5.02
2022-12-09T06:00:07.199Z,5.02
2022-12-09T06:00:41.855Z,5.09
2022-12-09T06:01:29.591Z,5.13
2022-12-09T06:02:09.801Z,5.13
2022-12-09T06:02:57.730Z,5.15
2022-12-09T06:03:31.662Z,5.19
2022-12-09T06:04:12.815Z,5.20
2022-12-09T06:04:55.611Z,5.21
2022-12-09T06:05:36.630Z,5.24
2022-12-09T06:06:20.777Z,5.14
2022-12-09T06:07:02.846Z,5.15
2022-12-09T06:07:44.019Z,5.22
2022-12-09T06:08:24.673Z,5.23
2022-12-09T06:09:11.579Z,5.26
2022-12-09T06:09:53.528Z,5.30
2022-12-09T06:10:34.882Z,5.24
2022-12-09T06:11:25.840Z,5.32
2022-12-09T06:12:06.668Z,5.24
2022-12-09T06:12:47.815Z,5.31
2022-12-09T06:13:28.631Z,5.35
2022-12-09T06:14:09.519Z,5.17
2022-12-09T06:14:49.887Z,5.35
2022-12-09T06:15:33.677Z,5.35
2022-12-09T06:16:15.622Z,5.35
2022-12-09T06:16:57.496Z,5.40
2022-12-09T06:17:38.061Z,5.42
2022-12-09T06:18:18.658Z,5.46
2022-12-09T06:18:58.701Z,5.29
2022-12-09T06:19:39.864Z,5.37
2022-12-09T06:20:20.593Z,5.44
2022-12-09T06:21:00.440Z,5.50
2022-12-09T06:21:41.645Z,5.52
2022-12-09T06:22:21.848Z,5.55
2022-12-09T06:23:03.734Z,5.53
2022-12-09T06:23:47.632Z,5.58
2022-12-09T06:24:27.591Z,5.58
2022-12-09T06:25:07.559Z,5.60
2022-12-09T06:25:50.818Z,5.60
2022-12-09T06:26:35.594Z,5.62
2022-12-09T06:27:15.672Z,5.64
2022-12-09T06:27:56.771Z,5.64
2022-12-09T06:28:37.769Z,5.59
2022-12-09T06:29:17.498Z,5.62
2022-12-09T06:29:58.477Z,5.66
2022-12-09T06:30:38.386Z,5.63
2022-12-09T06:31:18.899Z,5.64
2022-12-09T06:32:00.526Z,5.65
2022-12-09T06:32:41.641Z,5.64
2022-12-09T06:33:52.364Z,5.62
2022-12-09T06:34:21.593Z,5.64
2022-12-09T06:35:02.908Z,5.62
2022-12-09T06:35:43.947Z,5.59
2022-12-09T06:36:25.922Z,5.58
2022-12-09T06:37:13.760Z,5.59
2022-12-09T06:38:07.509Z,5.62
2022-12-09T06:39:09.269Z,5.58
2022-12-09T06:40:03.384Z,5.67
2022-12-09T06:40:58.410Z,5.65
2022-12-09T06:41:56.589Z,5.70
2022-12-09T06:42:37.631Z,5.68
2022-12-09T06:43:20.028Z,5.68
2022-12-09T06:44:04.769Z,5.69
2022-12-09T06:44:45.475Z,5.57
2022-12-09T06:45:27.613Z,5.69
2022-12-09T06:46:08.858Z,5.64
2022-12-09T06:46:48.727Z,5.66
2022-12-09T06:47:29.765Z,5.68
2022-12-09T06:48:11.681Z,5.68
2022-12-09T06:48:53.900Z,5.67
2022-12-09T06:49:35.548Z,5.64
2022-12-09T06:50:17.687Z,5.68
2022-12-09T06:50:58.674Z,5.64
2022-12-09T06:51:41.059Z,5.69
2022-12-09T06:52:22.843Z,5.70
2022-12-09T06:53:04.870Z,5.69
2022-12-09T06:53:46.764Z,5.65
2022-12-09T06:54:27.834Z,5.70
2022-12-09T06:55:08.958Z,5.71
2022-12-09T06:55:49.647Z,5.67
2022-12-09T06:56:31.392Z,5.74
2022-12-09T06:57:13.851Z,5.74
2022-12-09T06:57:55.719Z,5.69
2022-12-09T06:58:36.724Z,5.75
2022-12-09T06:59:17.586Z,5.71
2022-12-09T06:59:58.822Z,5.77
2022-12-09T07:00:39.773Z,5.79
2022-12-09T07:01:26.861Z,5.74
2022-12-09T07:02:08.920Z,5.78
2022-12-09T07:02:49.791Z,5.76
2022-12-09T07:03:30.775Z,5.78
2022-12-09T07:04:12.624Z,5.81
2022-12-09T07:04:53.649Z,5.80
2022-12-09T07:05:34.577Z,5.80
2022-12-09T07:06:32.767Z,5.81
2022-12-09T07:07:15.101Z,5.77
2022-12-09T07:07:59.654Z,5.78
2022-12-09T07:08:41.781Z,5.80
2022-12-09T07:09:28.694Z,5.80
2022-12-09T07:10:13.868Z,5.83
2022-12-09T07:10:51.745Z,5.84
2022-12-09T07:11:44.538Z,5.75
2022-12-09T07:12:18.560Z,5.82
2022-12-09T07:13:05.457Z,5.82
2022-12-09T07:13:39.448Z,5.82
2022-12-09T07:14:27.527Z,5.84
2022-12-09T07:15:01.956Z,5.83
2022-12-09T07:15:43.437Z,5.83
2022-12-09T07:16:23.883Z,5.81
2022-12-09T07:17:04.645Z,5.89
2022-12-09T07:17:45.508Z,5.94
2022-12-09T07:18:25.357Z,5.93
2022-12-09T07:19:06.469Z,5.93
2022-12-09T07:19:47.442Z,5.90
2022-12-09T07:20:28.572Z,5.90
2022-12-09T07:21:22.747Z,5.80
2022-12-09T07:22:03.694Z,5.87
2022-12-09T07:22:44.363Z,5.83
2022-12-09T07:23:24.809Z,5.85
2022-12-09T07:24:09.471Z,5.85
2022-12-09T07:24:51.657Z,5.86
2022-12-09T07:25:33.294Z,5.89
2022-12-09T07:26:15.740Z,5.88
2022-12-09T07:26:59.404Z,5.88
2022-12-09T07:27:43.627Z,5.89
2022-12-09T07:28:24.435Z,5.90
2022-12-09T07:29:20.759Z,5.90
2022-12-09T07:30:16.429Z,5.91
2022-12-09T07:31:10.493Z,5.94
2022-12-09T07:32:06.446Z,5.91
2022-12-09T07:33:00.731Z,5.98
2022-12-09T07:33:55.546Z,5.94
2022-12-09T07:34:51.721Z,5.92
2022-12-09T07:35:46.654Z,5.98
2022-12-09T07:36:44.729Z,5.98
2022-12-09T07:37:31.699Z,5.94
2022-12-09T07:38:05.602Z,5.96
2022-12-09T07:38:53.330Z,5.96
2022-12-09T07:39:27.573Z,5.97
2022-12-09T07:40:15.582Z,5.89
2022-12-09T07:40:50.969Z,5.94
2022-12-09T07:41:39.448Z,5.96
2022-12-09T07:42:13.827Z,5.85
2022-12-09T07:42:59.308Z,5.94
2022-12-09T07:43:42.716Z,5.88
2022-12-09T07:44:23.499Z,5.99
2022-12-09T07:45:04.574Z,6.02
2022-12-09T07:45:45.636Z,6.04
2022-12-09T07:46:29.146Z,6.00
2022-12-09T07:47:10.882Z,6.01
2022-12-09T07:47:51.623Z,5.90
2022-12-09T07:48:33.543Z,5.92
2022-12-09T07:49:14.463Z,5.80
2022-12-09T07:49:56.809Z,5.94
2022-12-09T07:50:39.565Z,5.93
2022-12-09T07:51:20.448Z,5.85
2022-12-09T07:52:00.777Z,5.92
2022-12-09T07:52:41.553Z,5.77
2022-12-09T07:53:21.673Z,5.93
2022-12-09T07:54:02.682Z,5.96
2022-12-09T07:54:43.681Z,5.97
2022-12-09T07:55:24.626Z,5.86
2022-12-09T07:56:11.932Z,5.97
2022-12-09T07:56:53.611Z,5.99
2022-12-09T07:57:35.324Z,5.84
2022-12-09T07:58:17.577Z,6.01
2022-12-09T07:58:59.582Z,6.02
2022-12-09T07:59:40.367Z,5.92
2022-12-09T08:00:21.480Z,5.98
2022-12-09T08:01:02.339Z,5.93
2022-12-09T08:01:43.833Z,5.98
2022-12-09T08:02:25.732Z,5.94
2022-12-09T08:03:06.538Z,5.91
2022-12-09T08:03:48.484Z,5.89
2022-12-09T08:04:30.817Z,5.87
2022-12-09T08:05:13.019Z,6.00
2022-12-09T08:06:00.687Z,6.02
2022-12-09T08:06:44.684Z,5.99
2022-12-09T08:07:26.545Z,6.04
2022-12-09T08:08:06.564Z,5.95
2022-12-09T08:08:48.264Z,5.98
2022-12-09T08:09:28.537Z,6.01
2022-12-09T08:10:10.741Z,6.10
2022-12-09T08:10:53.389Z,6.09
2022-12-09T08:11:37.867Z,6.13
2022-12-09T08:12:19.575Z,6.05
2022-12-09T08:13:00.620Z,6.02
2022-12-09T08:13:41.725Z,6.07
2022-12-09T08:14:22.730Z,6.10
2022-12-09T08:15:02.383Z,6.16
2022-12-09T08:15:42.856Z,6.17
2022-12-09T08:16:26.640Z,6.15
2022-12-09T08:17:08.810Z,6.17
2022-12-09T08:17:50.349Z,6.16
2022-12-09T08:18:32.644Z,6.20
2022-12-09T08:19:12.669Z,6.17
2022-12-09T08:19:54.053Z,6.20
2022-12-09T08:20:35.542Z,6.13
2022-12-09T08:21:21.232Z,6.18
2022-12-09T08:22:02.434Z,6.21
2022-12-09T08:22:42.666Z,6.12
2022-12-09T08:23:24.312Z,6.12
2022-12-09T08:24:08.064Z,6.07
2022-12-09T08:24:48.792Z,6.08
2022-12-09T08:25:29.476Z,5.98
2022-12-09T08:26:11.389Z,6.06
2022-12-09T08:26:52.799Z,6.13
2022-12-09T08:27:34.547Z,6.13
2022-12-09T08:28:15.701Z,6.04
2022-12-09T08:28:56.474Z,6.11
2022-12-09T08:29:38.760Z,6.11
2022-12-09T08:30:20.483Z,6.04
2022-12-09T08:31:02.951Z,6.08
2022-12-09T08:31:44.614Z,6.00
2022-12-09T08:32:25.700Z,5.99
2022-12-09T08:33:07.464Z,5.98
2022-12-09T08:33:48.930Z,6.00
2022-12-09T08:34:29.295Z,6.04
2022-12-09T08:35:15.199Z,5.95
2022-12-09T08:35:55.374Z,5.94
2022-12-09T08:36:37.193Z,6.00
2022-12-09T08:37:18.276Z,5.98
2022-12-09T08:37:58.330Z,5.89
2022-12-09T08:38:39.459Z,5.95
2022-12-09T08:39:20.304Z,6.04
2022-12-09T08:40:01.522Z,6.04
2022-12-09T08:40:43.745Z,5.96
2022-12-09T08:41:44.680Z,5.96
2022-12-09T08:42:25.547Z,6.00
2022-12-09T08:43:05.676Z,6.04
2022-12-09T08:43:54.436Z,6.00
2022-12-09T08:44:48.353Z,5.97
2022-12-09T08:45:43.527Z,6.07
2022-12-09T08:46:37.440Z,6.10
2022-12-09T08:47:31.423Z,6.12
2022-12-09T08:48:26.510Z,6.05
2022-12-09T08:49:14.496Z,6.08
2022-12-09T08:49:48.416Z,6.11
2022-12-09T08:50:38.328Z,6.12
2022-12-09T08:51:14.593Z,6.18
2022-12-09T08:52:01.878Z,6.10
2022-12-09T08:52:40.281Z,6.14
2022-12-09T08:53:28.349Z,6.13
2022-12-09T08:54:03.363Z,6.13
2022-12-09T08:54:44.372Z,6.17
2022-12-09T08:55:24.687Z,6.19
2022-12-09T08:56:05.231Z,6.23
2022-12-09T08:56:46.198Z,6.26
2022-12-09T08:57:33.789Z,6.26
2022-12-09T08:58:14.308Z,6.26
2022-12-09T08:58:55.608Z,6.31
2022-12-09T08:59:41.875Z,6.21
2022-12-09T09:00:26.255Z,6.28
2022-12-09T09:01:07.555Z,6.26
2022-12-09T09:01:48.468Z,6.34
2022-12-09T09:02:30.897Z,6.32
2022-12-09T09:03:12.468Z,6.35
2022-12-09T09:03:54.724Z,6.37
2022-12-09T09:04:35.871Z,6.35
2022-12-09T09:05:16.567Z,6.30
2022-12-09T09:05:56.515Z,6.32
2022-12-09T09:06:37.426Z,6.33
2022-12-09T09:07:18.504Z,6.26
2022-12-09T09:07:59.382Z,6.35
2022-12-09T09:08:40.299Z,6.38
2022-12-09T09:09:24.532Z,6.39
2022-12-09T09:10:08.533Z,6.23
2022-12-09T09:10:49.327Z,6.19
2022-12-09T09:11:30.770Z,6.22
2022-12-09T09:12:12.748Z,6.22
2022-12-09T09:12:54.293Z,6.24
2022-12-09T09:13:34.722Z,6.25
2022-12-09T09:14:18.390Z,6.27
2022-12-09T09:14:58.565Z,6.30
2022-12-09T09:15:38.332Z,6.30
2022-12-09T09:16:29.816Z,6.34
2022-12-09T09:17:11.285Z,6.35
2022-12-09T09:17:54.136Z,6.36
2022-12-09T09:18:34.334Z,6.39
2022-12-09T09:19:15.806Z,6.41
2022-12-09T09:19:56.702Z,6.43
2022-12-09T09:20:37.745Z,6.45
2022-12-09T09:21:21.697Z,6.43
2022-12-09T09:22:02.731Z,6.41
2022-12-09T09:22:43.693Z,6.46
2022-12-09T09:23:24.346Z,6.44
2022-12-09T09:24:05.343Z,6.43
2022-12-09T09:24:45.604Z,6.45
2022-12-09T09:25:26.263Z,6.48
2022-12-09T09:26:06.364Z,6.42
2022-12-09T09:26:49.383Z,6.46
2022-12-09T09:27:30.454Z,6.40
2022-12-09T09:28:11.237Z,6.36
2022-12-09T09:29:06.591Z,6.37
2022-12-09T09:30:00.709Z,6.40
2022-12-09T09:30:57.483Z,6.39
2022-12-09T09:31:51.359Z,6.36
2022-12-09T09:32:46.410Z,6.37
2022-12-09T09:33:33.467Z,6.30
2022-12-09T09:34:08.375Z,6.37
2022-12-09T09:34:57.768Z,6.47
2022-12-09T09:35:32.435Z,6.49
2022-12-09T09:36:31.489Z,6.40
2022-12-09T09:37:05.598Z,6.36
2022-12-09T09:37:52.509Z,6.42
2022-12-09T09:38:26.377Z,6.38
2022-12-09T09:39:07.727Z,6.34
2022-12-09T09:39:48.595Z,6.35
2022-12-09T09:40:29.598Z,6.34
2022-12-09T09:41:30.201Z,6.36
2022-12-09T09:42:13.431Z,6.30